Terminal Aerodrome Forecast
Issued by NWS Mt. Holly, NJ

Home | Current Version | Previous Version | Text Only | Print | Product List | Glossary On
Versions: 1 2 3 4 5 6 7 8 9 10 11 12 13 14 15 16 17 18 19 20
158
FTUS41 KPHI 122335
TAFABE
TAF
KABE 122335Z 1300/1324 24010KT P6SM BKN060
      TEMPO 1302/1305 5SM -SHSN BKN030
     FM130600 27005KT P6SM SCT030 OVC060
     FM130900 30012G22KT P6SM SCT030 OVC060
     FM131300 32015G28KT P6SM SCT030
     FM131600 32018G35KT P6SM BKN050=

USA.gov is the U.S. government's official web portal to all federal, state and local government web resources and services.